Time;durP1;ratioP1;P1;durP2;ratioP2;P2;SDS_P1;SDS_P2;PMS_P1;PMS_P2;Temp;Humidity;BMP_temperature;BMP_pressure;BME280_temperature;BME280_humidity;BME280_pressure;Samples;Min_cycle;Max_cycle;Signal;HPM_P1;HPM_P2
2023/01/07 00:00:26;;;;;;;27.80;17.00;;;6.60;99.90;;;;;;5262204;28;20201;-49
2023/01/07 00:02:57;;;;;;;24.63;17.83;;;6.50;99.90;;;;;;5259089;28;20210;-50
2023/01/07 00:05:28;;;;;;;25.40;15.47;;;6.50;99.90;;;;;;5251734;28;20212;-48
2023/01/07 00:07:58;;;;;;;23.93;13.63;;;6.60;99.90;;;;;;5264662;28;20202;-48
2023/01/07 00:10:29;;;;;;;20.57;13.20;;;6.50;99.90;;;;;;5266302;28;20201;-48
2023/01/07 00:13:00;;;;;;;18.67;11.60;;;6.60;99.90;;;;;;5265820;28;20661;-49
2023/01/07 00:15:31;;;;;;;13.50;10.50;;;6.50;99.90;;;;;;5264837;28;20190;-48
2023/01/07 00:18:01;;;;;;;12.33;10.40;;;6.50;99.90;;;;;;5265294;28;20566;-52
2023/01/07 00:20:32;;;;;;;13.50;9.53;;;6.50;99.90;;;;;;5269125;28;20182;-48
2023/01/07 00:23:02;;;;;;;10.63;8.73;;;6.50;99.90;;;;;;5262721;28;20209;-47
2023/01/07 00:25:33;;;;;;;12.57;9.10;;;6.50;99.90;;;;;;5267839;28;20177;-48
2023/01/07 00:28:04;;;;;;;15.57;10.57;;;6.50;99.90;;;;;;5267891;28;20197;-49
2023/01/07 00:30:34;;;;;;;12.13;10.20;;;6.50;99.90;;;;;;5261486;28;20232;-48
2023/01/07 00:33:06;;;;;;;11.20;9.37;;;6.60;99.90;;;;;;5266301;28;20542;-52
2023/01/07 00:35:36;;;;;;;16.83;11.13;;;6.50;99.90;;;;;;5254680;28;20654;-48
2023/01/07 00:38:07;;;;;;;16.13;10.20;;;6.50;99.90;;;;;;5265048;28;20517;-48
2023/01/07 00:40:38;;;;;;;12.10;9.30;;;6.50;99.90;;;;;;5282881;28;20193;-51
2023/01/07 00:43:08;;;;;;;15.03;9.80;;;6.50;99.90;;;;;;5268729;28;20210;-49
2023/01/07 00:45:39;;;;;;;10.37;9.23;;;6.50;99.90;;;;;;5269952;28;20221;-48
2023/01/07 00:48:09;;;;;;;13.80;8.67;;;6.60;99.90;;;;;;5265713;28;20518;-50
2023/01/07 00:50:40;;;;;;;12.97;10.13;;;6.60;99.90;;;;;;5267800;28;20192;-47
2023/01/07 00:53:11;;;;;;;19.13;12.90;;;6.50;99.90;;;;;;5259765;28;20194;-47
2023/01/07 00:55:42;;;;;;;10.93;9.10;;;6.50;99.90;;;;;;5251520;28;20265;-47
2023/01/07 00:58:19;;;;;;;13.30;7.93;;;6.50;99.90;;;;;;5266116;28;20209;-48
2023/01/07 01:00:55;;;;;;;8.77;6.90;;;6.50;99.90;;;;;;5264180;28;20181;-47
2023/01/07 01:03:27;;;;;;;9.30;7.40;;;6.50;99.90;;;;;;5265608;28;20454;-51
2023/01/07 01:06:06;;;;;;;10.00;7.03;;;6.50;99.90;;;;;;5270840;28;20439;-48
2023/01/07 01:08:37;;;;;;;7.53;6.83;;;6.40;99.90;;;;;;5263247;28;20447;-51
2023/01/07 01:11:09;;;;;;;7.90;6.80;;;6.40;99.90;;;;;;5256982;28;20845;-48
2023/01/07 01:13:41;;;;;;;7.13;6.17;;;6.50;99.90;;;;;;5263124;28;20600;-50
2023/01/07 01:16:15;;;;;;;11.03;7.80;;;6.60;99.90;;;;;;5265208;28;20729;-47
2023/01/07 01:18:46;;;;;;;7.43;6.73;;;6.50;99.90;;;;;;5264093;28;20459;-47
2023/01/07 01:21:17;;;;;;;6.70;6.00;;;6.50;99.90;;;;;;5260541;28;20546;-48
2023/01/07 01:23:48;;;;;;;10.00;7.43;;;6.40;99.90;;;;;;5267310;28;20459;-48
2023/01/07 01:26:18;;;;;;;10.13;7.23;;;6.30;99.90;;;;;;5265104;28;20546;-48
2023/01/07 01:28:49;;;;;;;10.20;6.80;;;6.30;99.90;;;;;;5260413;28;20284;-49
2023/01/07 01:31:20;;;;;;;8.10;6.83;;;6.30;99.90;;;;;;5246829;28;20186;-48
2023/01/07 01:33:55;;;;;;;8.13;7.33;;;6.20;99.90;;;;;;5260789;28;20254;-46
2023/01/07 01:36:25;;;;;;;10.33;6.97;;;6.30;99.90;;;;;;5250048;28;20207;-47
2023/01/07 01:38:56;;;;;;;10.23;7.10;;;6.40;99.90;;;;;;5268234;28;20847;-46
2023/01/07 01:41:27;;;;;;;8.63;6.70;;;6.40;99.90;;;;;;5261822;28;20185;-47
2023/01/07 01:43:57;;;;;;;12.10;7.53;;;6.40;99.90;;;;;;5265590;28;20303;-48
2023/01/07 01:46:38;;;;;;;14.00;7.03;;;6.40;99.90;;;;;;5260038;28;20256;-48
2023/01/07 01:49:20;;;;;;;7.20;6.60;;;6.40;99.90;;;;;;5262236;28;21693;-46
2023/01/07 01:52:16;;;;;;;14.13;8.03;;;6.40;99.90;;;;;;5264409;28;20427;-47
2023/01/07 01:54:53;;;;;;;8.53;6.70;;;6.50;99.90;;;;;;5264815;28;20943;-48
2023/01/07 01:57:27;;;;;;;11.03;7.07;;;6.60;99.90;;;;;;5257942;28;20463;-51
2023/01/07 01:59:59;;;;;;;12.00;7.17;;;6.50;99.90;;;;;;5257870;28;20904;-48
2023/01/07 02:02:37;;;;;;;8.03;5.97;;;6.40;99.90;;;;;;5262705;28;20811;-47
2023/01/07 02:05:08;;;;;;;10.73;5.90;;;6.40;99.90;;;;;;5265379;28;20603;-49
2023/01/07 02:07:39;;;;;;;9.13;6.77;;;6.30;99.90;;;;;;5256209;28;20456;-47
2023/01/07 02:10:17;;;;;;;11.63;7.13;;;6.30;99.90;;;;;;5252599;28;20821;-48
2023/01/07 02:13:19;;;;;;;6.30;5.70;;;6.30;99.90;;;;;;5264661;28;20177;-47
2023/01/07 02:16:00;;;;;;;11.10;7.57;;;6.20;99.90;;;;;;5261433;28;20472;-48
2023/01/07 02:18:56;;;;;;;9.40;6.20;;;6.20;99.90;;;;;;5257595;28;20468;-50
2023/01/07 02:21:40;;;;;;;15.63;5.50;;;6.20;99.90;;;;;;5264903;28;20448;-50
2023/01/07 02:24:20;;;;;;;7.10;5.87;;;6.10;99.90;;;;;;5263423;28;20472;-51
2023/01/07 02:27:04;;;;;;;10.67;7.33;;;6.10;99.90;;;;;;5255517;28;20475;-51
2023/01/07 02:29:57;;;;;;;9.67;6.70;;;6.20;99.90;;;;;;5249256;28;20448;-49
2023/01/07 02:33:01;;;;;;;18.53;7.30;;;6.20;99.90;;;;;;5251843;28;20440;-50
2023/01/07 02:35:58;;;;;;;10.77;8.43;;;6.30;99.90;;;;;;5259925;28;20451;-50
2023/01/07 02:38:50;;;;;;;16.60;7.40;;;6.40;99.90;;;;;;5265273;28;20554;-49
2023/01/07 02:41:29;;;;;;;9.50;7.37;;;6.40;99.90;;;;;;5272650;28;20467;-50
2023/01/07 02:44:05;;;;;;;7.50;6.80;;;6.80;99.90;;;;;;5259038;28;20473;-49
2023/01/07 02:46:59;;;;;;;9.13;6.47;;;6.90;99.90;;;;;;5255247;28;20435;-51
2023/01/07 02:49:30;;;;;;;8.10;6.13;;;6.80;99.90;;;;;;5259557;28;20493;-49
2023/01/07 02:52:19;;;;;;;6.50;5.90;;;6.60;99.90;;;;;;5259132;28;20505;-50
2023/01/07 02:55:03;;;;;;;6.47;5.63;;;6.50;99.90;;;;;;5253174;28;20189;-50
2023/01/07 02:58:14;;;;;;;7.10;6.37;;;6.40;99.90;;;;;;5261479;28;20442;-51
2023/01/07 03:01:09;;;;;;;7.50;6.80;;;6.30;99.90;;;;;;5256169;28;21050;-51
2023/01/07 03:04:05;;;;;;;7.80;7.00;;;6.30;99.90;;;;;;5282418;28;21040;-49
2023/01/07 03:06:48;;;;;;;14.90;8.77;;;6.30;99.90;;;;;;5257440;28;20538;-51
2023/01/07 03:09:35;;;;;;;10.17;8.57;;;6.20;99.90;;;;;;5262857;28;20462;-48
2023/01/07 03:12:43;;;;;;;13.33;8.93;;;6.20;99.90;;;;;;5263378;28;20447;-49
2023/01/07 03:15:44;;;;;;;18.30;11.83;;;6.20;99.90;;;;;;5235998;28;20480;-51
2023/01/07 03:18:23;;;;;;;11.03;8.03;;;6.20;99.90;;;;;;5268244;28;21105;-52
2023/01/07 03:21:00;;;;;;;13.07;9.20;;;6.20;99.90;;;;;;5260075;28;20427;-51
2023/01/07 03:23:32;;;;;;;22.40;12.13;;;6.10;99.90;;;;;;5259647;28;20465;-52
2023/01/07 03:26:05;;;;;;;20.50;10.57;;;6.20;99.90;;;;;;5256976;28;20837;-50
2023/01/07 03:28:40;;;;;;;12.90;9.43;;;6.10;99.90;;;;;;5260570;28;20450;-50
2023/01/07 03:31:13;;;;;;;15.40;10.00;;;6.10;99.90;;;;;;5260582;28;20434;-52
2023/01/07 03:34:01;;;;;;;15.93;11.37;;;6.30;99.90;;;;;;5261353;28;20813;-51
2023/01/07 03:36:38;;;;;;;19.80;12.13;;;6.30;99.90;;;;;;5266579;28;20467;-51
2023/01/07 03:39:11;;;;;;;17.20;12.10;;;6.40;99.90;;;;;;5262316;28;20463;-51
2023/01/07 03:44:30;;;;;;;20.87;12.53;;;6.60;99.90;;;;;;5259937;28;20435;-51
2023/01/07 03:47:02;;;;;;;19.20;11.77;;;6.60;99.90;;;;;;5261116;28;20432;-51
2023/01/07 03:49:34;;;;;;;16.17;11.80;;;6.60;99.90;;;;;;5256135;28;20198;-51
2023/01/07 03:52:05;;;;;;;12.47;10.40;;;6.70;99.90;;;;;;5253392;28;20446;-50
2023/01/07 03:54:36;;;;;;;14.33;10.00;;;6.70;99.90;;;;;;5255411;28;20437;-50
2023/01/07 03:57:07;;;;;;;14.43;10.30;;;6.70;99.90;;;;;;5265014;28;20189;-51
2023/01/07 03:59:37;;;;;;;20.77;11.93;;;6.70;99.90;;;;;;5259613;28;20213;-51
2023/01/07 04:02:08;;;;;;;18.00;13.07;;;6.70;99.90;;;;;;5279084;28;20209;-51
2023/01/07 04:04:38;;;;;;;14.80;11.10;;;6.70;99.90;;;;;;5260491;28;20186;-50
2023/01/07 04:07:09;;;;;;;14.53;11.17;;;6.60;99.90;;;;;;5247243;28;20209;-50
2023/01/07 04:09:40;;;;;;;14.63;11.17;;;6.80;99.90;;;;;;5260138;28;20200;-51
2023/01/07 04:12:10;;;;;;;14.60;11.90;;;7.00;99.90;;;;;;5258088;28;20182;-50
2023/01/07 04:14:41;;;;;;;14.00;11.03;;;6.90;99.90;;;;;;5255815;28;20196;-49
2023/01/07 04:17:11;;;;;;;12.97;10.87;;;6.70;99.90;;;;;;5255133;28;20197;-52
2023/01/07 04:19:42;;;;;;;15.37;10.00;;;6.60;99.90;;;;;;5261521;28;20726;-51
2023/01/07 04:22:13;;;;;;;13.90;10.40;;;6.70;99.90;;;;;;5271518;28;20208;-51
2023/01/07 04:24:43;;;;;;;15.53;12.37;;;6.70;99.90;;;;;;5257930;28;20190;-49
2023/01/07 04:27:14;;;;;;;13.17;11.30;;;6.90;99.90;;;;;;5253944;28;20698;-51
2023/01/07 04:29:45;;;;;;;21.60;12.97;;;6.80;99.90;;;;;;5244347;28;20197;-52
2023/01/07 04:32:15;;;;;;;11.27;9.67;;;6.70;99.90;;;;;;5253016;28;20182;-50
2023/01/07 04:34:46;;;;;;;15.27;11.43;;;6.50;99.90;;;;;;5259408;28;20216;-50
2023/01/07 04:37:16;;;;;;;14.03;11.00;;;6.60;99.90;;;;;;5265976;28;20240;-50
2023/01/07 04:39:47;;;;;;;16.77;11.37;;;6.50;99.90;;;;;;5257431;28;20289;-49
2023/01/07 04:42:17;;;;;;;13.47;11.10;;;6.60;99.90;;;;;;5249821;28;20613;-49
2023/01/07 04:44:48;;;;;;;14.73;11.00;;;6.60;99.90;;;;;;5254693;28;20263;-49
2023/01/07 04:47:19;;;;;;;14.93;10.80;;;6.70;99.90;;;;;;5263421;28;20632;-53
2023/01/07 04:49:49;;;;;;;15.17;12.80;;;6.60;99.90;;;;;;5254399;28;20179;-49
2023/01/07 04:52:20;;;;;;;14.33;11.60;;;6.60;99.90;;;;;;5264132;28;20188;-49
2023/01/07 04:54:50;;;;;;;14.20;11.10;;;6.50;99.90;;;;;;5285890;28;20188;-49
2023/01/07 04:57:21;;;;;;;23.70;11.57;;;6.80;99.90;;;;;;5264108;28;20186;-50
2023/01/07 04:59:52;;;;;;;13.13;11.13;;;6.70;99.90;;;;;;5261318;28;20264;-50
2023/01/07 05:02:23;;;;;;;14.63;11.50;;;6.90;99.90;;;;;;5252379;28;20260;-49
2023/01/07 05:04:53;;;;;;;13.43;10.80;;;7.00;99.90;;;;;;5249029;28;20193;-50
2023/01/07 05:07:24;;;;;;;14.80;10.83;;;6.90;99.90;;;;;;5260282;28;20444;-49
2023/01/07 05:09:54;;;;;;;17.63;11.10;;;7.00;99.90;;;;;;5259699;28;20185;-50
2023/01/07 05:12:25;;;;;;;14.90;11.47;;;7.10;99.90;;;;;;5270911;28;20549;-50
2023/01/07 05:14:56;;;;;;;16.90;11.10;;;7.00;99.90;;;;;;5256157;28;20182;-50
2023/01/07 05:17:26;;;;;;;13.67;10.40;;;7.00;99.90;;;;;;5257397;28;20202;-51
2023/01/07 05:19:57;;;;;;;12.30;9.70;;;7.10;99.90;;;;;;5259736;28;20181;-49
2023/01/07 05:22:27;;;;;;;12.33;10.27;;;7.00;99.90;;;;;;5258230;28;20214;-50
2023/01/07 05:24:58;;;;;;;14.17;10.30;;;7.10;99.90;;;;;;5257370;28;20539;-49
2023/01/07 05:27:29;;;;;;;13.83;10.53;;;7.10;99.90;;;;;;5260705;28;20185;-49
2023/01/07 05:29:59;;;;;;;11.33;9.77;;;7.20;99.90;;;;;;5255755;28;20186;-51
2023/01/07 05:32:30;;;;;;;11.50;9.90;;;7.10;99.90;;;;;;5253343;28;20201;-50
2023/01/07 05:35:01;;;;;;;14.43;10.03;;;7.10;99.90;;;;;;5260948;28;20264;-50
2023/01/07 05:37:31;;;;;;;12.63;10.03;;;7.10;99.90;;;;;;5262036;28;20189;-49
2023/01/07 05:40:02;;;;;;;17.87;11.07;;;7.30;99.90;;;;;;5262304;28;20186;-51
2023/01/07 05:42:33;;;;;;;14.53;9.53;;;7.40;99.90;;;;;;5260409;28;20202;-50
2023/01/07 05:45:04;;;;;;;13.07;9.97;;;7.20;99.90;;;;;;5262029;28;20520;-50
2023/01/07 05:47:35;;;;;;;19.20;9.90;;;7.20;99.90;;;;;;5259098;28;20186;-50
2023/01/07 05:50:06;;;;;;;10.53;9.10;;;7.20;99.90;;;;;;5275599;28;20439;-50
2023/01/07 05:52:36;;;;;;;11.80;10.53;;;7.20;99.90;;;;;;5261839;28;20197;-51
2023/01/07 05:55:07;;;;;;;13.43;10.57;;;7.10;99.90;;;;;;5259669;28;20195;-51
2023/01/07 05:57:38;;;;;;;12.50;10.20;;;7.20;99.90;;;;;;5249834;28;20196;-51
2023/01/07 06:00:09;;;;;;;15.47;11.17;;;7.20;99.90;;;;;;5253724;28;20497;-50
2023/01/07 06:02:39;;;;;;;17.57;12.50;;;7.20;99.90;;;;;;5251815;28;20209;-50
2023/01/07 06:05:10;;;;;;;20.00;11.70;;;7.20;99.90;;;;;;5265137;28;20432;-52
2023/01/07 06:07:41;;;;;;;18.40;11.80;;;7.30;99.90;;;;;;5264337;28;21134;-50
2023/01/07 06:10:11;;;;;;;17.37;12.33;;;7.40;99.90;;;;;;5267316;28;20273;-51
2023/01/07 06:12:42;;;;;;;17.37;11.40;;;7.30;99.90;;;;;;5267276;28;20955;-52
2023/01/07 06:15:12;;;;;;;18.03;13.63;;;7.20;99.90;;;;;;5261325;28;20193;-51
2023/01/07 06:17:43;;;;;;;17.40;13.90;;;7.10;99.90;;;;;;5260897;28;20217;-49
2023/01/07 06:20:14;;;;;;;25.77;15.20;;;7.00;99.90;;;;;;5267705;28;20202;-49
2023/01/07 06:22:44;;;;;;;20.13;12.90;;;7.00;99.90;;;;;;5263025;28;20697;-50
2023/01/07 06:25:15;;;;;;;22.20;15.00;;;6.90;99.90;;;;;;5245724;28;20182;-50
2023/01/07 06:27:46;;;;;;;25.60;15.87;;;7.00;99.90;;;;;;5264160;28;20300;-51
2023/01/07 06:30:16;;;;;;;29.70;16.57;;;7.00;99.90;;;;;;5263202;28;20261;-51
2023/01/07 06:32:47;;;;;;;21.77;15.20;;;7.00;99.90;;;;;;5259810;28;20210;-50
2023/01/07 06:35:18;;;;;;;24.87;16.13;;;7.00;99.90;;;;;;5266278;28;20208;-49
2023/01/07 06:37:48;;;;;;;22.90;15.27;;;7.00;99.90;;;;;;5265464;28;20573;-51
2023/01/07 06:40:19;;;;;;;22.93;16.07;;;7.00;99.90;;;;;;5255477;28;20188;-51
2023/01/07 06:42:49;;;;;;;25.30;17.50;;;7.10;99.90;;;;;;5258276;28;20205;-51
2023/01/07 06:45:20;;;;;;;19.47;14.10;;;7.10;99.90;;;;;;5261471;28;20178;-50
2023/01/07 06:47:51;;;;;;;18.30;13.73;;;7.20;99.90;;;;;;5263164;28;20661;-50
2023/01/07 06:50:22;;;;;;;18.23;13.13;;;7.20;99.90;;;;;;5263975;28;20178;-49
2023/01/07 06:52:53;;;;;;;16.40;12.33;;;7.20;99.90;;;;;;5265376;28;20188;-50
2023/01/07 06:55:23;;;;;;;22.83;14.90;;;7.30;99.90;;;;;;5264785;28;20931;-50
2023/01/07 06:57:54;;;;;;;17.97;11.37;;;7.20;99.90;;;;;;5264987;28;20559;-50
2023/01/07 07:00:25;;;;;;;21.10;13.30;;;7.20;99.90;;;;;;5264066;28;20189;-50
2023/01/07 07:02:55;;;;;;;21.53;13.03;;;7.20;99.90;;;;;;5261255;28;20209;-51
2023/01/07 07:05:27;;;;;;;21.20;14.23;;;7.40;99.90;;;;;;5260497;28;20264;-51
2023/01/07 07:07:59;;;;;;;19.67;12.20;;;7.50;99.90;;;;;;5262340;28;20201;-50
2023/01/07 07:10:30;;;;;;;16.33;12.77;;;7.60;99.90;;;;;;5256372;28;20599;-52
2023/01/07 07:13:00;;;;;;;27.80;12.80;;;7.60;99.90;;;;;;5249170;28;20439;-50
2023/01/07 07:15:31;;;;;;;23.40;13.40;;;7.50;99.90;;;;;;5249021;28;20186;-51
2023/01/07 07:18:02;;;;;;;17.40;11.53;;;7.40;99.90;;;;;;5275800;28;20206;-51
2023/01/07 07:20:33;;;;;;;18.70;12.37;;;7.50;99.90;;;;;;5264925;28;20190;-49
2023/01/07 07:23:04;;;;;;;18.10;11.23;;;7.50;99.90;;;;;;5264117;28;20550;-49
2023/01/07 07:25:34;;;;;;;15.73;12.20;;;7.50;99.90;;;;;;5264667;28;20515;-51
2023/01/07 07:28:05;;;;;;;15.70;11.60;;;7.50;99.90;;;;;;5260291;28;20213;-51
2023/01/07 07:30:36;;;;;;;21.23;14.20;;;7.60;99.90;;;;;;5259901;28;20190;-51
2023/01/07 07:33:07;;;;;;;24.00;15.10;;;7.50;99.90;;;;;;5259597;28;20178;-50
2023/01/07 07:35:37;;;;;;;28.00;15.63;;;7.50;99.90;;;;;;5263432;28;20573;-49
2023/01/07 07:38:08;;;;;;;15.97;12.23;;;7.40;99.90;;;;;;5266415;28;20209;-52
2023/01/07 07:40:39;;;;;;;16.33;11.93;;;7.40;99.90;;;;;;5265422;28;20204;-49
2023/01/07 07:43:10;;;;;;;21.67;13.80;;;7.40;99.90;;;;;;5263904;28;20551;-50
2023/01/07 07:45:41;;;;;;;14.63;11.70;;;7.60;99.90;;;;;;5248812;28;20653;-52
2023/01/07 07:48:13;;;;;;;19.30;12.20;;;7.60;99.90;;;;;;5260531;28;20314;-51
2023/01/07 07:50:44;;;;;;;14.30;11.40;;;7.70;99.90;;;;;;5264822;28;20493;-48
2023/01/07 07:53:14;;;;;;;16.40;11.00;;;7.70;99.90;;;;;;5253995;28;20447;-47
2023/01/07 07:55:45;;;;;;;18.03;10.83;;;7.70;99.90;;;;;;5265814;28;20220;-50
2023/01/07 07:58:16;;;;;;;20.00;10.23;;;7.80;99.90;;;;;;5258729;28;20567;-49
2023/01/07 08:00:46;;;;;;;15.00;11.67;;;7.80;99.90;;;;;;5256028;28;20186;-52
2023/01/07 08:03:17;;;;;;;17.10;12.47;;;7.80;99.90;;;;;;5260554;28;20206;-50
2023/01/07 08:05:48;;;;;;;14.87;11.17;;;7.70;99.90;;;;;;5270450;28;20181;-49
2023/01/07 08:08:18;;;;;;;15.63;10.67;;;7.50;99.90;;;;;;5269189;28;20197;-50
2023/01/07 08:10:49;;;;;;;13.50;10.37;;;7.70;99.90;;;;;;5281123;28;20174;-49
2023/01/07 08:13:19;;;;;;;14.83;10.10;;;7.60;99.90;;;;;;5270773;28;20182;-49
2023/01/07 08:15:50;;;;;;;16.67;10.73;;;7.60;99.90;;;;;;5267221;28;21026;-50
2023/01/07 08:18:22;;;;;;;17.60;11.77;;;7.60;99.90;;;;;;5260720;28;20253;-50
2023/01/07 08:20:54;;;;;;;24.97;13.23;;;7.70;99.90;;;;;;5267085;28;20721;-48
2023/01/07 08:23:26;;;;;;;15.50;11.47;;;7.70;99.90;;;;;;5263547;28;20459;-51
2023/01/07 08:26:02;;;;;;;15.30;11.80;;;7.70;99.90;;;;;;5263561;28;20972;-50
2023/01/07 08:28:33;;;;;;;16.27;11.40;;;7.70;99.90;;;;;;5256770;28;20569;-50
2023/01/07 08:31:05;;;;;;;14.43;10.30;;;7.70;99.90;;;;;;5263869;28;20859;-52
2023/01/07 08:33:37;;;;;;;12.57;9.80;;;7.80;99.90;;;;;;5259810;28;20489;-50
2023/01/07 08:36:08;;;;;;;8.70;7.80;;;7.80;99.90;;;;;;5264265;28;20463;-48
2023/01/07 08:38:39;;;;;;;7.80;7.10;;;7.90;99.90;;;;;;5256389;28;20459;-50
2023/01/07 08:41:10;;;;;;;8.47;7.57;;;8.00;99.90;;;;;;5246476;28;20474;-50
2023/01/07 08:43:43;;;;;;;10.77;8.27;;;8.00;99.90;;;;;;5259402;28;20217;-51
2023/01/07 08:46:14;;;;;;;12.00;9.93;;;8.10;99.90;;;;;;5255891;28;20179;-49
2023/01/07 08:48:44;;;;;;;13.60;8.80;;;8.10;99.90;;;;;;5260342;28;20863;-49
2023/01/07 08:51:15;;;;;;;11.30;7.97;;;8.10;99.90;;;;;;5255787;28;20178;-49
2023/01/07 08:53:46;;;;;;;10.17;7.97;;;8.00;99.90;;;;;;5239543;28;20273;-51
2023/01/07 08:56:17;;;;;;;9.37;6.73;;;8.10;99.90;;;;;;5240976;28;20613;-50
2023/01/07 08:58:47;;;;;;;8.57;6.90;;;8.20;99.90;;;;;;5261225;28;20498;-51
2023/01/07 09:01:18;;;;;;;7.93;7.13;;;8.20;99.90;;;;;;5261602;28;20260;-51
2023/01/07 09:03:49;;;;;;;7.00;6.27;;;8.30;99.90;;;;;;5265812;28;20213;-51
2023/01/07 09:06:21;;;;;;;9.33;5.90;;;8.30;99.90;;;;;;5259830;28;20186;-50
2023/01/07 09:08:51;;;;;;;6.83;6.23;;;8.30;99.90;;;;;;5262226;28;20208;-52
2023/01/07 09:11:22;;;;;;;6.23;5.63;;;8.30;99.90;;;;;;5265898;28;20435;-50
2023/01/07 09:13:53;;;;;;;9.23;6.00;;;8.30;99.90;;;;;;5266329;28;20193;-52
2023/01/07 09:16:23;;;;;;;6.97;6.30;;;8.30;99.90;;;;;;5242746;28;20254;-52
2023/01/07 09:18:54;;;;;;;8.90;5.53;;;8.30;99.90;;;;;;5262075;28;20213;-51
2023/01/07 09:21:24;;;;;;;5.27;4.77;;;8.30;99.90;;;;;;5259793;28;20189;-51
2023/01/07 09:23:55;;;;;;;4.70;4.23;;;8.40;99.90;;;;;;5263719;28;20635;-50
2023/01/07 09:26:26;;;;;;;5.63;5.13;;;8.40;99.90;;;;;;5259603;28;20273;-51
2023/01/07 09:28:56;;;;;;;8.40;6.57;;;8.50;99.90;;;;;;5263644;28;20224;-51
2023/01/07 09:31:27;;;;;;;8.00;5.70;;;8.50;99.90;;;;;;5260281;28;20224;-51
2023/01/07 09:33:57;;;;;;;5.93;5.13;;;8.40;99.90;;;;;;5243962;28;20182;-50
2023/01/07 09:36:28;;;;;;;5.13;4.80;;;8.50;99.90;;;;;;5262196;28;20185;-50
2023/01/07 09:38:59;;;;;;;5.53;4.90;;;8.60;99.90;;;;;;5259933;28;20284;-52
2023/01/07 09:42:01;;;;;;;10.93;7.20;;;8.50;99.90;;;;;;5258299;28;20288;-49
2023/01/07 09:44:59;;;;;;;6.20;5.70;;;8.70;99.90;;;;;;5258989;28;20204;-52
2023/01/07 09:47:32;;;;;;;9.20;5.37;;;8.80;99.90;;;;;;5257365;28;20440;-50
2023/01/07 09:50:44;;;;;;;4.63;4.33;;;8.80;99.90;;;;;;5260877;28;20460;-52
2023/01/07 09:53:40;;;;;;;4.33;4.03;;;8.80;99.90;;;;;;5233881;28;20451;-51
2023/01/07 09:56:25;;;;;;;9.13;4.40;;;9.10;99.90;;;;;;5252791;28;20451;-51
2023/01/07 09:58:57;;;;;;;7.40;5.47;;;9.30;99.90;;;;;;5257422;28;20964;-49
2023/01/07 10:01:40;;;;;;;4.57;4.27;;;9.10;99.90;;;;;;5255153;28;20521;-51
2023/01/07 10:04:40;;;;;;;6.30;5.40;;;9.20;99.90;;;;;;5272424;28;20581;-51
2023/01/07 10:07:11;;;;;;;8.03;5.70;;;9.10;99.90;;;;;;5264233;28;20432;-51
2023/01/07 10:09:53;;;;;;;12.57;9.47;;;9.40;99.90;;;;;;5253136;28;20508;-51
2023/01/07 10:12:41;;;;;;;12.50;10.03;;;9.40;99.90;;;;;;5256396;28;20190;-51
2023/01/07 10:15:15;;;;;;;10.73;7.00;;;9.30;99.90;;;;;;5269907;27;20446;-50
2023/01/07 10:18:00;;;;;;;6.70;5.43;;;9.50;99.90;;;;;;5251040;28;20461;-52
2023/01/07 10:21:03;;;;;;;5.30;4.80;;;9.50;99.90;;;;;;5253252;28;20436;-52
2023/01/07 10:23:40;;;;;;;10.77;9.60;;;9.50;99.90;;;;;;5241596;28;21191;-50
2023/01/07 10:26:36;;;;;;;10.90;8.67;;;9.50;99.90;;;;;;5273216;28;20530;-52
2023/01/07 10:29:15;;;;;;;5.60;5.10;;;9.70;99.90;;;;;;5270186;28;20582;-51
2023/01/07 10:31:48;;;;;;;4.10;3.70;;;9.80;99.90;;;;;;5266339;28;20439;-49
2023/01/07 10:34:24;;;;;;;4.00;3.70;;;9.80;99.90;;;;;;5251062;28;20948;-50
2023/01/07 10:37:28;;;;;;;9.20;4.53;;;9.80;99.90;;;;;;5267481;28;20451;-50
2023/01/07 10:40:11;;;;;;;11.40;4.20;;;10.00;99.90;;;;;;5266944;28;20467;-51
2023/01/07 10:43:09;;;;;;;4.50;4.03;;;10.00;99.90;;;;;;5269735;28;20463;-52
2023/01/07 10:46:06;;;;;;;4.17;3.90;;;10.00;99.90;;;;;;5268814;28;20435;-50
2023/01/07 10:48:37;;;;;;;6.23;4.30;;;10.10;99.90;;;;;;5260926;28;20467;-50
2023/01/07 10:51:22;;;;;;;5.23;4.90;;;10.30;99.90;;;;;;5263566;28;20485;-52
2023/01/07 10:54:26;;;;;;;4.90;4.50;;;10.40;99.90;;;;;;5269948;28;20548;-52
2023/01/07 10:57:04;;;;;;;6.97;5.03;;;10.20;99.90;;;;;;5263009;28;20435;-51
2023/01/07 10:59:35;;;;;;;5.57;5.07;;;10.20;99.90;;;;;;5264020;28;20490;-51
2023/01/07 11:02:15;;;;;;;6.90;4.40;;;10.20;99.90;;;;;;5263453;28;20440;-50
2023/01/07 11:04:46;;;;;;;4.93;4.47;;;10.20;99.90;;;;;;5262374;28;20444;-51
2023/01/07 11:07:42;;;;;;;4.40;4.00;;;10.10;99.90;;;;;;5258813;28;20429;-50
2023/01/07 11:10:16;;;;;;;5.47;3.50;;;10.10;99.90;;;;;;5259747;28;20205;-52
2023/01/07 11:12:56;;;;;;;3.77;3.43;;;10.00;99.90;;;;;;5247474;28;20722;-52
2023/01/07 11:15:35;;;;;;;3.23;3.03;;;10.00;99.90;;;;;;5258140;28;20512;-51
2023/01/07 11:18:28;;;;;;;6.33;2.80;;;9.80;99.90;;;;;;5264998;28;20456;-51
2023/01/07 11:20:59;;;;;;;3.30;2.97;;;9.70;99.90;;;;;;5264005;28;20451;-49
2023/01/07 11:23:35;;;;;;;4.43;2.83;;;9.60;99.90;;;;;;5253310;28;20580;-51
2023/01/07 11:26:25;;;;;;;4.30;3.33;;;9.60;99.90;;;;;;5258692;28;20446;-50
2023/01/07 11:29:18;;;;;;;3.13;2.93;;;9.80;99.90;;;;;;5261600;28;20547;-52
2023/01/07 11:31:53;;;;;;;3.73;2.80;;;9.70;99.90;;;;;;5263128;28;20515;-51
2023/01/07 11:34:31;;;;;;;4.63;2.70;;;9.60;99.90;;;;;;5270180;28;20437;-50
2023/01/07 11:37:03;;;;;;;3.43;2.60;;;9.60;99.90;;;;;;5264196;28;20430;-51
2023/01/07 11:39:34;;;;;;;3.57;3.43;;;9.60;99.90;;;;;;5263372;28;20471;-49
2023/01/07 11:45:14;;;;;;;3.43;3.13;;;9.70;99.90;;;;;;5258300;28;20435;-51
2023/01/07 11:47:57;;;;;;;2.23;2.13;;;9.80;99.90;;;;;;5272343;28;21118;-49
2023/01/07 11:50:56;;;;;;;2.77;2.57;;;10.00;99.90;;;;;;5259638;28;20614;-51
2023/01/07 11:53:33;;;;;;;5.33;3.03;;;10.10;99.90;;;;;;5261383;28;20442;-50
2023/01/07 11:56:06;;;;;;;3.80;3.60;;;10.10;99.90;;;;;;5264771;28;20970;-51
2023/01/07 11:58:43;;;;;;;3.67;3.37;;;10.30;99.90;;;;;;5267587;28;20461;-51
2023/01/07 12:01:22;;;;;;;2.57;2.37;;;10.40;99.90;;;;;;5264479;28;20840;-51
2023/01/07 12:03:53;;;;;;;2.27;2.17;;;10.40;99.90;;;;;;5258555;28;20463;-52
2023/01/07 12:06:31;;;;;;;3.40;3.20;;;10.60;99.90;;;;;;5263409;28;20428;-51
2023/01/07 12:09:24;;;;;;;4.03;3.50;;;10.70;99.90;;;;;;5264253;28;20193;-50
2023/01/07 12:12:06;;;;;;;2.03;1.93;;;10.70;99.90;;;;;;5259110;28;20456;-51
2023/01/07 12:14:38;;;;;;;2.13;2.03;;;10.60;99.90;;;;;;5258418;28;20466;-50
2023/01/07 12:17:11;;;;;;;2.00;1.90;;;10.80;99.90;;;;;;5263558;28;20431;-51
2023/01/07 12:20:06;;;;;;;2.20;1.80;;;11.00;99.90;;;;;;5256763;28;20475;-51
2023/01/07 12:22:36;;;;;;;1.83;1.83;;;10.90;99.90;;;;;;5257551;28;20823;-51
2023/01/07 12:25:51;;;;;;;1.27;1.27;;;11.00;99.90;;;;;;5264219;28;20446;-50
2023/01/07 12:28:45;;;;;;;2.37;2.27;;;11.00;99.90;;;;;;5258954;28;20288;-51
2023/01/07 12:31:29;;;;;;;2.20;2.10;;;11.10;99.90;;;;;;5265395;28;20429;-51
2023/01/07 12:34:37;;;;;;;2.80;2.60;;;11.20;99.90;;;;;;5270057;28;20443;-51
2023/01/07 12:37:11;;;;;;;2.40;2.30;;;11.20;99.90;;;;;;5272987;28;20443;-52
2023/01/07 12:39:44;;;;;;;6.53;3.87;;;11.40;99.90;;;;;;5271307;28;20462;-53
2023/01/07 12:42:19;;;;;;;2.20;2.10;;;11.20;99.90;;;;;;5276885;28;20450;-52
2023/01/07 12:44:54;;;;;;;4.57;2.60;;;11.20;99.90;;;;;;5274335;28;20491;-51
2023/01/07 12:47:49;;;;;;;1.70;1.70;;;11.20;99.90;;;;;;5267764;28;20487;-52
2023/01/07 12:50:37;;;;;;;4.87;1.83;;;11.30;99.90;;;;;;5271548;28;20449;-52
2023/01/07 12:53:18;;;;;;;1.77;1.67;;;11.20;99.90;;;;;;5278923;27;20967;-52
2023/01/07 12:56:11;;;;;;;2.10;2.00;;;11.20;99.90;;;;;;5264981;28;20472;-50
2023/01/07 12:58:48;;;;;;;2.43;1.60;;;11.10;99.90;;;;;;5255025;28;20475;-52
2023/01/07 13:02:05;;;;;;;2.33;2.23;;;11.20;99.90;;;;;;5266675;28;20533;-52
2023/01/07 13:05:15;;;;;;;5.30;1.40;;;11.30;99.90;;;;;;5255754;28;20955;-51
2023/01/07 13:08:23;;;;;;;2.30;2.20;;;11.30;99.90;;;;;;5255715;28;20825;-51
2023/01/07 13:11:19;;;;;;;4.17;2.50;;;11.10;99.90;;;;;;5254118;28;20427;-52
2023/01/07 13:13:53;;;;;;;2.10;2.00;;;11.10;99.90;;;;;;5257332;28;20799;-51
2023/01/07 13:16:23;;;;;;;9.40;2.57;;;11.20;99.90;;;;;;5258735;28;20440;-51
2023/01/07 13:18:54;;;;;;;2.53;2.40;;;11.10;99.90;;;;;;5248156;28;20467;-50
2023/01/07 13:21:25;;;;;;;2.33;1.50;;;11.20;99.90;;;;;;5276110;28;20190;-52
2023/01/07 13:24:40;;;;;;;1.77;1.67;;;11.10;99.90;;;;;;5263424;28;20358;-52
2023/01/07 13:27:26;;;;;;;2.63;2.43;;;11.20;99.90;;;;;;5281143;27;20239;-51
2023/01/07 13:30:15;;;;;;;2.43;2.23;;;11.10;99.90;;;;;;5267037;28;20470;-52
2023/01/07 13:33:08;;;;;;;2.40;2.23;;;10.90;99.90;;;;;;5272040;28;20440;-52
2023/01/07 13:36:03;;;;;;;1.67;1.63;;;10.90;99.90;;;;;;5268658;28;20451;-50
2023/01/07 13:38:37;;;;;;;2.37;2.27;;;11.00;99.90;;;;;;5265324;28;20451;-52